Bemidji, MN

6:36 AM CDT on April 25, 2017 (GMT -0500)
Norway Court | | Change Station

Elev 1378 ft 47.54 °N, 94.88 °W | Updated 31 seconds ago

Overcast
Overcast
35.9 °F
Feels Like 36 °F
N
0.0
Wind Variable Wind from WNW

Today
High -- | Low -- °F
--% Chance of Precip.
Yesterday
High -- | Low -- °F
Precip. -- in
Pressure 29.62 in
Visibility 3.0 miles
Clouds Overcast 300 ft
Windchill 36 °F
Dew Point 35 °F
Humidity 98%
Rainfall 0.00 in
Snow Depth Not available.
6:12 AM 8:23 PM
Waning Crescent, 2% visible
METAR KBJI 251114Z AUTO 36007KT 3SM BR OVC003 02/02 A2962 RMK AO2 T00190016
Pressure 29.62 in
Visibility 3.0 miles
Clouds Overcast 300 ft
Windchill 36 °F
Dew Point 35 °F
Humidity 98%
Rainfall 0.00 in
Snow Depth Not available.
6:12 AM 8:23 PM
Waning Crescent, 2% visible
METAR KBJI 251114Z AUTO 36007KT 3SM BR OVC003 02/02 A2962 RMK AO2 T00190016

Get Severe Weather Alerts

Thanks for signing up!

Be on the lookout for a verification email in your inbox.

You'll start receiving the daily forecast at 8 AM.

×

10-Day Weather Forecast

Almanac

Astronomy

Apr. 25, 2017 Rise Set
Actual Time
Civil Twilight
Nautical Twilight
Astronomical Twilight
Moon
Length of Visible Light
Length of Day
Tomorrow will be .
, % of the Moon is Illuminated

Today's Extremes

State Highs State Lows

Community

WunderPhotos

WunderBlog® & News

Nearby

Air Quality

  Air Quality AQ Index Pollutant
Not available.

Snow Depth

Station Depth Elevation

Earthquake Activity

City Distance Mag. Time & Date
Minimum magnitude displayed is 2.5.

Coastal Water Temperatures

Place Temperature

Stations

Nearby Weather Stations

Station Location Temp. Windchill Dew Point Humidity Wind Precip. Elev Updated Type
                   

Watches & Warnings

There are currently no watches in effect.